sensor_id;sensor_type;location;lat;lon;timestamp;pressure;altitude;pressure_sealevel;temperature;humidity
35489;BME280;21602;55.670;37.578;2022-07-29T00:00:39;99224.94;;;17.61;82.15
35489;BME280;21602;55.670;37.578;2022-07-29T00:03:05;99223.44;;;17.50;82.04
35489;BME280;21602;55.670;37.578;2022-07-29T00:05:31;99235.63;;;17.42;82.55
35489;BME280;21602;55.670;37.578;2022-07-29T00:07:57;99235.91;;;17.40;82.71
35489;BME280;21602;55.670;37.578;2022-07-29T00:10:23;99232.16;;;17.36;82.44
35489;BME280;21602;55.670;37.578;2022-07-29T00:12:48;99231.66;;;17.34;82.59
35489;BME280;21602;55.670;37.578;2022-07-29T00:15:14;99233.56;;;17.29;82.66
35489;BME280;21602;55.670;37.578;2022-07-29T00:17:40;99231.94;;;17.28;82.92
35489;BME280;21602;55.670;37.578;2022-07-29T00:20:06;99243.84;;;17.22;82.93
35489;BME280;21602;55.670;37.578;2022-07-29T00:22:32;99239.31;;;17.17;83.03
35489;BME280;21602;55.670;37.578;2022-07-29T00:24:58;99246.63;;;17.11;83.21
35489;BME280;21602;55.670;37.578;2022-07-29T00:27:24;99238.56;;;17.06;83.34
35489;BME280;21602;55.670;37.578;2022-07-29T00:29:49;99246.94;;;17.05;83.45
35489;BME280;21602;55.670;37.578;2022-07-29T00:32:15;99243.44;;;16.99;83.55
35489;BME280;21602;55.670;37.578;2022-07-29T00:34:41;99235.97;;;16.91;83.98
35489;BME280;21602;55.670;37.578;2022-07-29T00:37:25;99238.69;;;16.86;84.12
35489;BME280;21602;55.670;37.578;2022-07-29T00:39:51;99244.88;;;16.86;84.35
35489;BME280;21602;55.670;37.578;2022-07-29T00:42:17;99243.28;;;16.85;84.20
35489;BME280;21602;55.670;37.578;2022-07-29T00:44:43;99254.59;;;16.82;84.26
35489;BME280;21602;55.670;37.578;2022-07-29T00:47:11;99247.84;;;16.80;84.54
35489;BME280;21602;55.670;37.578;2022-07-29T00:49:38;99252.44;;;16.79;84.51
35489;BME280;21602;55.670;37.578;2022-07-29T00:52:05;99255.72;;;16.76;84.37
35489;BME280;21602;55.670;37.578;2022-07-29T00:54:33;99256.22;;;16.78;84.59
35489;BME280;21602;55.670;37.578;2022-07-29T00:57:00;99270.78;;;16.77;84.42
35489;BME280;21602;55.670;37.578;2022-07-29T00:59:26;99274.03;;;16.74;84.40
35489;BME280;21602;55.670;37.578;2022-07-29T01:01:53;99265.44;;;16.72;84.60
35489;BME280;21602;55.670;37.578;2022-07-29T01:04:20;99262.16;;;16.70;84.25
35489;BME280;21602;55.670;37.578;2022-07-29T01:06:47;99272.94;;;16.70;84.08
35489;BME280;21602;55.670;37.578;2022-07-29T01:09:15;99274.31;;;16.68;84.26
35489;BME280;21602;55.670;37.578;2022-07-29T01:11:42;99272.44;;;16.63;84.44
35489;BME280;21602;55.670;37.578;2022-07-29T01:14:09;99270.25;;;16.65;84.33
35489;BME280;21602;55.670;37.578;2022-07-29T01:16:51;99282.66;;;16.66;84.31
35489;BME280;21602;55.670;37.578;2022-07-29T01:28:01;99269.78;;;16.48;84.56
35489;BME280;21602;55.670;37.578;2022-07-29T01:30:35;99276.25;;;16.42;84.37
35489;BME280;21602;55.670;37.578;2022-07-29T01:33:15;99272.50;;;16.43;84.53
35489;BME280;21602;55.670;37.578;2022-07-29T01:36:07;99269.78;;;16.37;84.49
35489;BME280;21602;55.670;37.578;2022-07-29T01:38:37;99273.88;;;16.35;84.94
35489;BME280;21602;55.670;37.578;2022-07-29T01:41:16;99272.78;;;16.36;84.68
35489;BME280;21602;55.670;37.578;2022-07-29T01:43:56;99269.78;;;16.37;84.72
35489;BME280;21602;55.670;37.578;2022-07-29T01:46:35;99270.06;;;16.41;84.84
35489;BME280;21602;55.670;37.578;2022-07-29T01:49:10;99273.03;;;16.45;85.04
35489;BME280;21602;55.670;37.578;2022-07-29T01:51:43;99276.53;;;16.45;84.93
35489;BME280;21602;55.670;37.578;2022-07-29T01:54:42;99276.00;;;16.43;85.16
35489;BME280;21602;55.670;37.578;2022-07-29T01:57:11;99273.84;;;16.40;85.42
35489;BME280;21602;55.670;37.578;2022-07-29T01:59:40;99267.13;;;16.43;85.55
35489;BME280;21602;55.670;37.578;2022-07-29T02:02:08;99266.03;;;16.44;85.50
35489;BME280;21602;55.670;37.578;2022-07-29T02:04:36;99272.50;;;16.43;85.79
35489;BME280;21602;55.670;37.578;2022-07-29T02:07:05;99275.72;;;16.45;85.81
35489;BME280;21602;55.670;37.578;2022-07-29T02:09:34;99275.19;;;16.43;85.83
35489;BME280;21602;55.670;37.578;2022-07-29T02:12:02;99268.19;;;16.42;86.04
35489;BME280;21602;55.670;37.578;2022-07-29T02:14:33;99268.72;;;16.44;85.93
35489;BME280;21602;55.670;37.578;2022-07-29T02:17:00;99273.56;;;16.42;86.21
35489;BME280;21602;55.670;37.578;2022-07-29T02:19:29;99273.84;;;16.40;86.07
35489;BME280;21602;55.670;37.578;2022-07-29T02:21:55;99277.63;;;16.39;86.34
35489;BME280;21602;55.670;37.578;2022-07-29T02:24:23;99277.06;;;16.37;86.31
35489;BME280;21602;55.670;37.578;2022-07-29T02:26:51;99276.81;;;16.38;86.55
35489;BME280;21602;55.670;37.578;2022-07-29T02:29:21;99278.97;;;16.36;86.52
35489;BME280;21602;55.670;37.578;2022-07-29T02:31:49;99283.28;;;16.43;86.47
35489;BME280;21602;55.670;37.578;2022-07-29T02:34:17;99290.28;;;16.44;85.99
35489;BME280;21602;55.670;37.578;2022-07-29T02:36:44;99289.22;;;16.39;86.15
35489;BME280;21602;55.670;37.578;2022-07-29T02:39:12;99277.31;;;16.46;86.18
35489;BME280;21602;55.670;37.578;2022-07-29T02:41:43;99279.47;;;16.54;86.00
35489;BME280;21602;55.670;37.578;2022-07-29T02:44:12;99291.84;;;16.60;85.66
35489;BME280;21602;55.670;37.578;2022-07-29T02:46:43;99282.44;;;16.57;85.49
35489;BME280;21602;55.670;37.578;2022-07-29T02:49:18;99281.63;;;16.52;85.49
35489;BME280;21602;55.670;37.578;2022-07-29T02:52:00;99277.88;;;16.53;85.50
35489;BME280;21602;55.670;37.578;2022-07-29T02:54:37;99279.19;;;16.55;85.62
35489;BME280;21602;55.670;37.578;2022-07-29T02:57:11;99285.16;;;16.52;84.38
35489;BME280;21602;55.670;37.578;2022-07-29T02:59:41;99282.44;;;16.52;84.97
35489;BME280;21602;55.670;37.578;2022-07-29T03:02:09;99285.13;;;16.57;84.31
35489;BME280;21602;55.670;37.578;2022-07-29T03:04:39;99287.25;;;16.60;84.14
35489;BME280;21602;55.670;37.578;2022-07-29T03:07:07;99284.31;;;16.62;83.96
35489;BME280;21602;55.670;37.578;2022-07-29T03:09:34;99286.44;;;16.65;83.47
35489;BME280;21602;55.670;37.578;2022-07-29T03:12:01;99289.38;;;16.69;83.43
35489;BME280;21602;55.670;37.578;2022-07-29T03:14:27;99286.97;;;16.77;83.33
35489;BME280;21602;55.670;37.578;2022-07-29T03:16:54;99285.84;;;16.83;82.60
35489;BME280;21602;55.670;37.578;2022-07-29T03:19:20;99281.81;;;16.86;82.43
35489;BME280;21602;55.670;37.578;2022-07-29T03:21:45;99283.69;;;16.91;82.35
35489;BME280;21602;55.670;37.578;2022-07-29T03:24:31;99273.69;;;16.96;81.27
35489;BME280;21602;55.670;37.578;2022-07-29T03:26:57;99287.97;;;16.97;81.57
35489;BME280;21602;55.670;37.578;2022-07-29T03:29:24;99284.72;;;16.95;81.99
35489;BME280;21602;55.670;37.578;2022-07-29T03:31:50;99282.25;;;17.03;82.00
35489;BME280;21602;55.670;37.578;2022-07-29T03:34:16;99286.59;;;17.04;81.53
35489;BME280;21602;55.670;37.578;2022-07-29T03:36:42;99283.06;;;17.04;81.05
35489;BME280;21602;55.670;37.578;2022-07-29T03:39:09;99279.00;;;17.11;80.99
35489;BME280;21602;55.670;37.578;2022-07-29T03:41:38;99281.38;;;17.18;80.76
35489;BME280;21602;55.670;37.578;2022-07-29T03:44:07;99280.81;;;17.21;79.98
35489;BME280;21602;55.670;37.578;2022-07-29T03:46:35;99282.69;;;17.26;80.19
35489;BME280;21602;55.670;37.578;2022-07-29T03:49:03;99291.28;;;17.33;80.01
35489;BME280;21602;55.670;37.578;2022-07-29T03:51:30;99288.53;;;17.43;79.85
35489;BME280;21602;55.670;37.578;2022-07-29T03:53:56;99292.47;;;17.56;79.49
35489;BME280;21602;55.670;37.578;2022-07-29T03:56:22;99289.94;;;17.70;79.40
35489;BME280;21602;55.670;37.578;2022-07-29T03:58:50;99291.75;;;17.84;79.16
35489;BME280;21602;55.670;37.578;2022-07-29T04:01:17;99289.00;;;17.89;77.98
35489;BME280;21602;55.670;37.578;2022-07-29T04:03:44;99299.25;;;17.92;77.38
35489;BME280;21602;55.670;37.578;2022-07-29T04:06:12;99305.50;;;17.88;76.95
35489;BME280;21602;55.670;37.578;2022-07-29T04:08:38;99297.16;;;17.84;76.95
35489;BME280;21602;55.670;37.578;2022-07-29T04:11:05;99300.94;;;17.83;76.64
35489;BME280;21602;55.670;37.578;2022-07-29T04:13:31;99302.03;;;17.82;76.67
35489;BME280;21602;55.670;37.578;2022-07-29T04:15:58;99303.59;;;17.88;76.83
35489;BME280;21602;55.670;37.578;2022-07-29T04:18:23;99306.22;;;17.99;76.05
35489;BME280;21602;55.670;37.578;2022-07-29T04:20:49;99303.66;;;18.12;76.28
35489;BME280;21602;55.670;37.578;2022-07-29T04:23:15;99301.91;;;18.27;75.81
35489;BME280;21602;55.670;37.578;2022-07-29T04:25:41;99306.19;;;18.33;74.61
35489;BME280;21602;55.670;37.578;2022-07-29T04:28:08;99302.66;;;18.32;74.59
35489;BME280;21602;55.670;37.578;2022-07-29T04:30:36;99306.25;;;18.23;74.42
35489;BME280;21602;55.670;37.578;2022-07-29T04:33:05;99310.66;;;18.13;74.29
35489;BME280;21602;55.670;37.578;2022-07-29T04:35:34;99310.13;;;18.16;74.89
35489;BME280;21602;55.670;37.578;2022-07-29T04:38:00;99314.34;;;18.28;75.10
35489;BME280;21602;55.670;37.578;2022-07-29T04:40:27;99318.88;;;18.32;74.66
35489;BME280;21602;55.670;37.578;2022-07-29T04:42:53;99323.78;;;18.30;74.54
35489;BME280;21602;55.670;37.578;2022-07-29T04:45:18;99316.75;;;18.29;74.72
35489;BME280;21602;55.670;37.578;2022-07-29T04:47:44;99318.31;;;18.35;74.41
35489;BME280;21602;55.670;37.578;2022-07-29T04:50:10;99322.34;;;18.38;74.07
35489;BME280;21602;55.670;37.578;2022-07-29T04:52:36;99321.22;;;18.44;74.31
35489;BME280;21602;55.670;37.578;2022-07-29T04:55:03;99324.09;;;18.53;73.63
35489;BME280;21602;55.670;37.578;2022-07-29T04:57:29;99323.81;;;18.54;73.47
35489;BME280;21602;55.670;37.578;2022-07-29T04:59:55;99319.69;;;18.62;73.66
35489;BME280;21602;55.670;37.578;2022-07-29T05:02:20;99321.75;;;18.70;73.16
35489;BME280;21602;55.670;37.578;2022-07-29T05:04:48;99323.53;;;18.80;72.65
35489;BME280;21602;55.670;37.578;2022-07-29T05:07:14;99314.81;;;18.88;72.23
35489;BME280;21602;55.670;37.578;2022-07-29T05:09:39;99323.66;;;18.93;72.47
35489;BME280;21602;55.670;37.578;2022-07-29T05:12:07;99318.59;;;18.87;71.70
35489;BME280;21602;55.670;37.578;2022-07-29T05:14:33;99317.28;;;18.84;71.85
35489;BME280;21602;55.670;37.578;2022-07-29T05:16:58;99327.41;;;18.74;71.43
35489;BME280;21602;55.670;37.578;2022-07-29T05:19:24;99326.03;;;18.76;71.97
35489;BME280;21602;55.670;37.578;2022-07-29T05:21:50;99325.44;;;18.79;72.06
35489;BME280;21602;55.670;37.578;2022-07-29T05:24:16;99331.03;;;18.88;72.16
35489;BME280;21602;55.670;37.578;2022-07-29T05:26:42;99324.13;;;19.01;72.00
35489;BME280;21602;55.670;37.578;2022-07-29T05:29:08;99321.34;;;19.06;71.55
35489;BME280;21602;55.670;37.578;2022-07-29T05:31:34;99324.50;;;19.13;72.01
35489;BME280;21602;55.670;37.578;2022-07-29T05:34:00;99318.22;;;19.17;71.82
35489;BME280;21602;55.670;37.578;2022-07-29T05:36:25;99318.31;;;19.31;71.59
35489;BME280;21602;55.670;37.578;2022-07-29T05:38:51;99310.88;;;19.42;71.49
35489;BME280;21602;55.670;37.578;2022-07-29T05:41:20;99321.47;;;19.38;70.79
35489;BME280;21602;55.670;37.578;2022-07-29T05:43:46;99320.56;;;19.24;70.75
35489;BME280;21602;55.670;37.578;2022-07-29T05:46:12;99324.38;;;19.23;70.88
35489;BME280;21602;55.670;37.578;2022-07-29T05:48:39;99322.91;;;19.31;70.50
35489;BME280;21602;55.670;37.578;2022-07-29T05:51:05;99322.50;;;19.42;70.39
35489;BME280;21602;55.670;37.578;2022-07-29T05:53:31;99313.63;;;19.56;69.76
35489;BME280;21602;55.670;37.578;2022-07-29T05:55:57;99314.41;;;19.61;69.58
35489;BME280;21602;55.670;37.578;2022-07-29T05:58:23;99316.50;;;19.64;69.26
35489;BME280;21602;55.670;37.578;2022-07-29T06:00:50;99318.41;;;19.64;68.18
35489;BME280;21602;55.670;37.578;2022-07-29T06:03:15;99315.47;;;19.60;67.80
35489;BME280;21602;55.670;37.578;2022-07-29T06:05:41;99316.22;;;19.66;68.56
35489;BME280;21602;55.670;37.578;2022-07-29T06:08:07;99328.28;;;19.74;68.32
35489;BME280;21602;55.670;37.578;2022-07-29T06:10:34;99321.50;;;19.76;68.05
35489;BME280;21602;55.670;37.578;2022-07-29T06:13:00;99321.19;;;19.78;67.87
35489;BME280;21602;55.670;37.578;2022-07-29T06:15:26;99320.28;;;19.82;67.71
35489;BME280;21602;55.670;37.578;2022-07-29T06:17:52;99318.44;;;19.97;67.58
35489;BME280;21602;55.670;37.578;2022-07-29T06:20:18;99309.25;;;20.11;66.95
35489;BME280;21602;55.670;37.578;2022-07-29T06:22:44;99320.53;;;20.18;65.58
35489;BME280;21602;55.670;37.578;2022-07-29T06:25:10;99320.97;;;20.07;64.96
35489;BME280;21602;55.670;37.578;2022-07-29T06:27:37;99306.41;;;20.03;65.59
35489;BME280;21602;55.670;37.578;2022-07-29T06:30:03;99315.06;;;20.05;65.82
35489;BME280;21602;55.670;37.578;2022-07-29T06:32:32;99307.16;;;20.08;65.56
35489;BME280;21602;55.670;37.578;2022-07-29T06:34:58;99302.81;;;20.07;65.38
35489;BME280;21602;55.670;37.578;2022-07-29T06:37:23;99312.19;;;20.15;65.42
35489;BME280;21602;55.670;37.578;2022-07-29T06:39:49;99317.72;;;20.24;63.13
35489;BME280;21602;55.670;37.578;2022-07-29T06:42:36;99307.78;;;20.19;63.07
35489;BME280;21602;55.670;37.578;2022-07-29T06:45:02;99302.03;;;20.20;62.92
35489;BME280;21602;55.670;37.578;2022-07-29T06:47:29;99298.53;;;20.20;62.76
35489;BME280;21602;55.670;37.578;2022-07-29T06:49:54;99301.88;;;20.31;63.17
35489;BME280;21602;55.670;37.578;2022-07-29T06:52:20;99298.88;;;20.46;62.56
35489;BME280;21602;55.670;37.578;2022-07-29T06:54:46;99291.66;;;20.55;62.20
35489;BME280;21602;55.670;37.578;2022-07-29T06:57:14;99306.44;;;20.63;61.64
35489;BME280;21602;55.670;37.578;2022-07-29T06:59:40;99306.34;;;20.68;59.93
35489;BME280;21602;55.670;37.578;2022-07-29T07:02:06;99307.38;;;20.72;59.51
35489;BME280;21602;55.670;37.578;2022-07-29T07:04:32;99304.06;;;20.75;60.03
35489;BME280;21602;55.670;37.578;2022-07-29T07:06:59;99309.28;;;20.85;59.52
35489;BME280;21602;55.670;37.578;2022-07-29T07:09:25;99301.53;;;20.92;59.34
35489;BME280;21602;55.670;37.578;2022-07-29T07:11:50;99309.56;;;20.84;58.11
35489;BME280;21602;55.670;37.578;2022-07-29T07:14:16;99314.91;;;20.89;58.38
35489;BME280;21602;55.670;37.578;2022-07-29T07:16:42;99316.50;;;20.90;57.38
35489;BME280;21602;55.670;37.578;2022-07-29T07:19:08;99314.38;;;20.87;57.63
35489;BME280;21602;55.670;37.578;2022-07-29T07:21:34;99314.28;;;20.78;57.71
35489;BME280;21602;55.670;37.578;2022-07-29T07:23:59;99316.00;;;20.88;57.50
35489;BME280;21602;55.670;37.578;2022-07-29T07:26:26;99317.00;;;21.06;57.39
35489;BME280;21602;55.670;37.578;2022-07-29T07:28:52;99322.97;;;21.30;57.17
35489;BME280;21602;55.670;37.578;2022-07-29T07:31:18;99310.97;;;21.59;56.99
35489;BME280;21602;55.670;37.578;2022-07-29T07:33:44;99317.22;;;21.82;56.22
35489;BME280;21602;55.670;37.578;2022-07-29T07:36:10;99318.16;;;21.99;55.75
35489;BME280;21602;55.670;37.578;2022-07-29T07:38:36;99322.94;;;22.03;54.32
35489;BME280;21602;55.670;37.578;2022-07-29T07:41:02;99311.72;;;21.95;53.88
35489;BME280;21602;55.670;37.578;2022-07-29T07:43:27;99312.53;;;21.96;53.98
35489;BME280;21602;55.670;37.578;2022-07-29T07:45:53;99315.19;;;21.87;53.17
35489;BME280;21602;55.670;37.578;2022-07-29T07:48:19;99318.50;;;21.62;54.25
35489;BME280;21602;55.670;37.578;2022-07-29T07:50:45;99318.97;;;21.41;54.21
35489;BME280;21602;55.670;37.578;2022-07-29T07:53:11;99322.78;;;21.40;54.13
35489;BME280;21602;55.670;37.578;2022-07-29T07:55:41;99325.38;;;21.45;53.65
35489;BME280;21602;55.670;37.578;2022-07-29T07:58:07;99320.38;;;21.39;53.71
35489;BME280;21602;55.670;37.578;2022-07-29T08:00:33;99322.66;;;21.45;53.86
35489;BME280;21602;55.670;37.578;2022-07-29T08:02:59;99329.25;;;21.67;53.47
35489;BME280;21602;55.670;37.578;2022-07-29T08:05:24;99340.31;;;21.70;52.49
35489;BME280;21602;55.670;37.578;2022-07-29T08:07:50;99331.41;;;21.79;52.78
35489;BME280;21602;55.670;37.578;2022-07-29T08:10:18;99332.34;;;21.96;52.70
35489;BME280;21602;55.670;37.578;2022-07-29T08:13:04;99335.31;;;22.09;51.94
35489;BME280;21602;55.670;37.578;2022-07-29T08:15:30;99327.16;;;22.09;51.02
35489;BME280;21602;55.670;37.578;2022-07-29T08:17:56;99320.88;;;22.22;51.34
35489;BME280;21602;55.670;37.578;2022-07-29T08:20:22;99316.50;;;22.43;51.31
35489;BME280;21602;55.670;37.578;2022-07-29T08:22:48;99325.34;;;22.49;50.37
35489;BME280;21602;55.670;37.578;2022-07-29T08:25:14;99321.69;;;22.54;50.12
35489;BME280;21602;55.670;37.578;2022-07-29T08:27:39;99318.53;;;22.69;50.12
35489;BME280;21602;55.670;37.578;2022-07-29T08:30:06;99324.66;;;22.83;49.71
35489;BME280;21602;55.670;37.578;2022-07-29T08:32:32;99325.84;;;22.91;49.78
35489;BME280;21602;55.670;37.578;2022-07-29T08:34:58;99316.13;;;23.16;49.06
35489;BME280;21602;55.670;37.578;2022-07-29T08:37:23;99312.16;;;23.31;48.36
35489;BME280;21602;55.670;37.578;2022-07-29T08:39:49;99322.91;;;23.27;46.91
35489;BME280;21602;55.670;37.578;2022-07-29T08:42:15;99314.22;;;23.25;47.00
35489;BME280;21602;55.670;37.578;2022-07-29T08:44:42;99318.44;;;23.31;46.90
35489;BME280;21602;55.670;37.578;2022-07-29T08:47:08;99307.69;;;23.35;46.80
35489;BME280;21602;55.670;37.578;2022-07-29T08:49:34;99315.22;;;23.38;47.01
35489;BME280;21602;55.670;37.578;2022-07-29T08:52:02;99315.69;;;23.22;47.10
35489;BME280;21602;55.670;37.578;2022-07-29T08:54:28;99311.00;;;23.06;47.81
35489;BME280;21602;55.670;37.578;2022-07-29T08:56:55;99312.63;;;23.15;47.54
35489;BME280;21602;55.670;37.578;2022-07-29T08:59:24;99319.06;;;23.37;47.71
35489;BME280;21602;55.670;37.578;2022-07-29T09:01:53;99321.28;;;23.35;47.18
35489;BME280;21602;55.670;37.578;2022-07-29T09:04:19;99313.94;;;23.35;47.13
35489;BME280;21602;55.670;37.578;2022-07-29T09:06:49;99315.06;;;23.43;47.23
35489;BME280;21602;55.670;37.578;2022-07-29T09:09:16;99313.47;;;23.42;46.98
35489;BME280;21602;55.670;37.578;2022-07-29T09:11:43;99314.88;;;23.22;47.27
35489;BME280;21602;55.670;37.578;2022-07-29T09:14:11;99308.78;;;23.08;47.19
35489;BME280;21602;55.670;37.578;2022-07-29T09:21:47;99303.09;;;23.70;47.29
35489;BME280;21602;55.670;37.578;2022-07-29T09:24:45;99314.63;;;23.84;46.90
35489;BME280;21602;55.670;37.578;2022-07-29T09:27:25;99318.09;;;24.02;46.67
35489;BME280;21602;55.670;37.578;2022-07-29T09:30:10;99313.91;;;24.22;46.07
35489;BME280;21602;55.670;37.578;2022-07-29T09:33:00;99311.97;;;24.31;45.84
35489;BME280;21602;55.670;37.578;2022-07-29T09:35:28;99319.06;;;24.15;45.60
35489;BME280;21602;55.670;37.578;2022-07-29T09:37:54;99308.53;;;23.79;45.52
35489;BME280;21602;55.670;37.578;2022-07-29T09:40:25;99322.94;;;23.62;45.75
35489;BME280;21602;55.670;37.578;2022-07-29T09:42:52;99321.53;;;23.64;45.72
35489;BME280;21602;55.670;37.578;2022-07-29T09:47:54;99310.44;;;23.78;44.62
35489;BME280;21602;55.670;37.578;2022-07-29T09:50:21;99312.03;;;23.88;45.01
35489;BME280;21602;55.670;37.578;2022-07-29T09:52:50;99332.06;;;23.92;44.86
35489;BME280;21602;55.670;37.578;2022-07-29T09:55:17;99323.13;;;23.65;45.17
35489;BME280;21602;55.670;37.578;2022-07-29T09:57:44;99332.44;;;23.64;45.04
35489;BME280;21602;55.670;37.578;2022-07-29T10:02:39;99324.19;;;23.38;44.91
35489;BME280;21602;55.670;37.578;2022-07-29T10:05:17;99323.22;;;23.34;45.14
35489;BME280;21602;55.670;37.578;2022-07-29T10:07:51;99319.69;;;23.25;45.33
35489;BME280;21602;55.670;37.578;2022-07-29T10:10:21;99328.97;;;23.24;45.05
35489;BME280;21602;55.670;37.578;2022-07-29T10:12:52;99325.28;;;23.20;45.40
35489;BME280;21602;55.670;37.578;2022-07-29T10:15:18;99323.53;;;23.24;45.55
35489;BME280;21602;55.670;37.578;2022-07-29T10:17:45;99329.16;;;23.36;45.60
35489;BME280;21602;55.670;37.578;2022-07-29T10:20:11;99328.25;;;23.67;45.30
35489;BME280;21602;55.670;37.578;2022-07-29T10:22:37;99317.00;;;23.94;45.50
35489;BME280;21602;55.670;37.578;2022-07-29T10:25:03;99316.94;;;24.20;45.15
35489;BME280;21602;55.670;37.578;2022-07-29T10:27:29;99322.91;;;24.14;44.26
35489;BME280;21602;55.670;37.578;2022-07-29T10:29:55;99311.22;;;24.05;44.84
35489;BME280;21602;55.670;37.578;2022-07-29T10:35:15;99309.78;;;23.90;43.01
35489;BME280;21602;55.670;37.578;2022-07-29T10:40:47;99317.81;;;23.69;43.56
35489;BME280;21602;55.670;37.578;2022-07-29T10:43:37;99316.38;;;23.71;43.46
35489;BME280;21602;55.670;37.578;2022-07-29T10:46:06;99309.97;;;23.85;43.17
35489;BME280;21602;55.670;37.578;2022-07-29T10:48:33;99318.16;;;23.85;43.64
35489;BME280;21602;55.670;37.578;2022-07-29T10:51:01;99310.59;;;23.73;43.23
35489;BME280;21602;55.670;37.578;2022-07-29T10:56:32;99314.44;;;23.89;43.01
35489;BME280;21602;55.670;37.578;2022-07-29T11:01:48;99312.94;;;24.26;43.02
35489;BME280;21602;55.670;37.578;2022-07-29T11:05:16;99312.88;;;24.52;42.71
35489;BME280;21602;55.670;37.578;2022-07-29T11:07:11;99318.75;;;24.63;42.53
35489;BME280;21602;55.670;37.578;2022-07-29T11:09:38;99316.03;;;24.63;42.44
35489;BME280;21602;55.670;37.578;2022-07-29T11:15:02;99317.78;;;24.68;42.65
35489;BME280;21602;55.670;37.578;2022-07-29T11:20:46;99321.19;;;24.65;42.59
35489;BME280;21602;55.670;37.578;2022-07-29T11:23:33;99326.66;;;24.65;42.82
35489;BME280;21602;55.670;37.578;2022-07-29T11:28:48;99319.56;;;24.64;43.01
35489;BME280;21602;55.670;37.578;2022-07-29T11:31:16;99329.75;;;24.46;42.35
35489;BME280;21602;55.670;37.578;2022-07-29T11:33:45;99320.28;;;24.43;42.89
35489;BME280;21602;55.670;37.578;2022-07-29T11:36:12;99319.63;;;24.55;42.64
35489;BME280;21602;55.670;37.578;2022-07-29T11:38:39;99329.69;;;24.63;43.10
35489;BME280;21602;55.670;37.578;2022-07-29T11:43:46;99330.47;;;24.64;43.01
35489;BME280;21602;55.670;37.578;2022-07-29T11:46:12;99325.31;;;24.71;43.08
35489;BME280;21602;55.670;37.578;2022-07-29T11:48:42;99338.16;;;24.79;43.00
35489;BME280;21602;55.670;37.578;2022-07-29T11:51:11;99329.31;;;24.73;42.99
35489;BME280;21602;55.670;37.578;2022-07-29T11:53:39;99325.19;;;24.67;43.12
35489;BME280;21602;55.670;37.578;2022-07-29T11:56:08;99326.94;;;24.63;43.20
35489;BME280;21602;55.670;37.578;2022-07-29T11:58:34;99327.75;;;24.64;43.12
35489;BME280;21602;55.670;37.578;2022-07-29T12:01:00;99328.72;;;24.59;43.22
35489;BME280;21602;55.670;37.578;2022-07-29T12:03:28;99331.19;;;24.43;42.91
35489;BME280;21602;55.670;37.578;2022-07-29T12:05:54;99328.19;;;24.36;43.43
35489;BME280;21602;55.670;37.578;2022-07-29T12:08:22;99329.44;;;24.39;43.37
35489;BME280;21602;55.670;37.578;2022-07-29T12:10:50;99326.41;;;24.40;43.55
35489;BME280;21602;55.670;37.578;2022-07-29T12:13:18;99319.50;;;24.43;43.34
35489;BME280;21602;55.670;37.578;2022-07-29T12:15:54;99322.19;;;24.51;43.36
35489;BME280;21602;55.670;37.578;2022-07-29T12:18:20;99319.66;;;24.46;43.75
35489;BME280;21602;55.670;37.578;2022-07-29T12:20:48;99315.13;;;24.50;43.59
35489;BME280;21602;55.670;37.578;2022-07-29T12:23:14;99305.81;;;24.51;43.02
35489;BME280;21602;55.670;37.578;2022-07-29T12:25:43;99311.91;;;24.48;43.43
35489;BME280;21602;55.670;37.578;2022-07-29T12:28:12;99314.34;;;24.50;43.28
35489;BME280;21602;55.670;37.578;2022-07-29T12:30:43;99305.19;;;24.55;43.56
35489;BME280;21602;55.670;37.578;2022-07-29T12:33:21;99313.88;;;24.77;43.23
35489;BME280;21602;55.670;37.578;2022-07-29T12:35:50;99312.63;;;25.04;42.73
35489;BME280;21602;55.670;37.578;2022-07-29T12:38:17;99310.16;;;25.41;42.75
35489;BME280;21602;55.670;37.578;2022-07-29T12:40:44;99309.56;;;25.57;42.27
35489;BME280;21602;55.670;37.578;2022-07-29T12:43:18;99308.69;;;25.65;42.02
35489;BME280;21602;55.670;37.578;2022-07-29T12:45:52;99317.84;;;25.69;41.77
35489;BME280;21602;55.670;37.578;2022-07-29T12:48:40;99312.44;;;25.81;41.45
35489;BME280;21602;55.670;37.578;2022-07-29T12:51:07;99310.97;;;25.84;41.69
35489;BME280;21602;55.670;37.578;2022-07-29T12:53:37;99303.69;;;25.67;41.93
35489;BME280;21602;55.670;37.578;2022-07-29T12:56:04;99311.31;;;25.40;41.67
35489;BME280;21602;55.670;37.578;2022-07-29T12:58:34;99308.34;;;25.24;42.05
35489;BME280;21602;55.670;37.578;2022-07-29T13:01:04;99304.63;;;25.29;41.94
35489;BME280;21602;55.670;37.578;2022-07-29T13:03:50;99304.69;;;25.41;41.78
35489;BME280;21602;55.670;37.578;2022-07-29T13:06:36;99308.41;;;25.58;41.64
35489;BME280;21602;55.670;37.578;2022-07-29T13:09:09;99307.09;;;25.64;41.85
35489;BME280;21602;55.670;37.578;2022-07-29T13:11:37;99307.75;;;25.61;41.45
35489;BME280;21602;55.670;37.578;2022-07-29T13:14:04;99304.69;;;25.62;41.28
35489;BME280;21602;55.670;37.578;2022-07-29T13:16:30;99312.03;;;25.49;41.74
35489;BME280;21602;55.670;37.578;2022-07-29T13:19:11;99308.88;;;25.39;41.74
35489;BME280;21602;55.670;37.578;2022-07-29T13:21:38;99305.31;;;25.26;42.20
35489;BME280;21602;55.670;37.578;2022-07-29T13:24:05;99304.81;;;25.24;42.01
35489;BME280;21602;55.670;37.578;2022-07-29T13:26:31;99305.81;;;25.19;42.34
35489;BME280;21602;55.670;37.578;2022-07-29T13:28:57;99306.22;;;25.00;42.66
35489;BME280;21602;55.670;37.578;2022-07-29T13:31:23;99299.59;;;25.10;42.50
35489;BME280;21602;55.670;37.578;2022-07-29T13:33:49;99301.03;;;25.16;42.87
35489;BME280;21602;55.670;37.578;2022-07-29T13:36:15;99304.31;;;25.31;42.59
35489;BME280;21602;55.670;37.578;2022-07-29T13:38:41;99304.03;;;25.44;42.79